Mieres, Spain
Current Conditions -  °F | °C
As of 9:30 AM on Tuesday 27 Jan 2015 (Local Time) from LEAS Reporting Station
Broken Clouds Broken Clouds  
Wind Chill: 42°   Ceiling: 5000
Heat Index: 46°   Visibility: 6mi
Dew Point: 39°   Wind: 8mph
Humidity: 76%   Direction: 240°WSW
Pressure: 30.53"   Gusts: NA
Location:  43.25°N, 5.77°W
Report Text: LEAS 270830Z 24007KT 9999 FEW030 BKN050 08/04 Q1034 NOSIG
Loading
Personal Weather Stations






























Interactive Weather Map New forecast layout! Learn more

10-Day Weather Forecast

Advertisements
Track Severe Weather on mobile